sensor_id;sensor_type;location;lat;lon;timestamp;P1;durP1;ratioP1;P2;durP2;ratioP2
52962;SDS011;38827;53.024;6.596;2022-10-04T00:10:23;20.20;;;7.05;;
52962;SDS011;38827;53.024;6.596;2022-10-04T00:13:30;18.05;;;7.10;;
52962;SDS011;38827;53.024;6.596;2022-10-04T00:16:01;13.07;;;6.97;;
52962;SDS011;38827;53.024;6.596;2022-10-04T00:18:31;15.80;;;7.55;;
52962;SDS011;38827;53.024;6.596;2022-10-04T00:24:59;14.98;;;7.43;;
52962;SDS011;38827;53.024;6.596;2022-10-04T00:33:53;16.63;;;8.13;;
52962;SDS011;38827;53.024;6.596;2022-10-04T00:36:57;13.23;;;7.05;;
52962;SDS011;38827;53.024;6.596;2022-10-04T00:39:24;20.15;;;7.57;;
52962;SDS011;38827;53.024;6.596;2022-10-04T00:42:08;17.27;;;7.70;;
52962;SDS011;38827;53.024;6.596;2022-10-04T00:48:26;17.50;;;7.68;;
52962;SDS011;38827;53.024;6.596;2022-10-04T00:51:00;15.88;;;7.63;;
52962;SDS011;38827;53.024;6.596;2022-10-04T00:53:50;17.77;;;8.65;;
52962;SDS011;38827;53.024;6.596;2022-10-04T00:59:24;17.33;;;7.82;;
52962;SDS011;38827;53.024;6.596;2022-10-04T01:04:41;19.38;;;8.90;;
52962;SDS011;38827;53.024;6.596;2022-10-04T01:07:12;17.38;;;8.25;;
52962;SDS011;38827;53.024;6.596;2022-10-04T01:09:46;18.40;;;8.90;;
52962;SDS011;38827;53.024;6.596;2022-10-04T01:15:21;24.27;;;9.48;;
52962;SDS011;38827;53.024;6.596;2022-10-04T01:18:09;16.52;;;8.35;;
52962;SDS011;38827;53.024;6.596;2022-10-04T01:23:40;13.20;;;8.48;;
52962;SDS011;38827;53.024;6.596;2022-10-04T01:28:59;17.55;;;8.82;;
52962;SDS011;38827;53.024;6.596;2022-10-04T01:31:31;19.42;;;9.65;;
52962;SDS011;38827;53.024;6.596;2022-10-04T01:33:59;21.52;;;9.07;;
52962;SDS011;38827;53.024;6.596;2022-10-04T01:36:26;19.48;;;8.95;;
52962;SDS011;38827;53.024;6.596;2022-10-04T01:38:53;17.90;;;9.32;;
52962;SDS011;38827;53.024;6.596;2022-10-04T01:41:33;21.13;;;9.10;;
52962;SDS011;38827;53.024;6.596;2022-10-04T01:44:10;18.10;;;9.13;;
52962;SDS011;38827;53.024;6.596;2022-10-04T01:46:46;18.17;;;8.98;;
52962;SDS011;38827;53.024;6.596;2022-10-04T01:49:16;16.55;;;8.30;;
52962;SDS011;38827;53.024;6.596;2022-10-04T01:51:48;20.58;;;8.70;;
52962;SDS011;38827;53.024;6.596;2022-10-04T01:54:22;16.80;;;8.35;;
52962;SDS011;38827;53.024;6.596;2022-10-04T01:57:02;15.27;;;8.10;;
52962;SDS011;38827;53.024;6.596;2022-10-04T01:59:30;21.08;;;7.93;;
52962;SDS011;38827;53.024;6.596;2022-10-04T02:02:03;18.23;;;8.35;;
52962;SDS011;38827;53.024;6.596;2022-10-04T02:04:35;20.35;;;8.27;;
52962;SDS011;38827;53.024;6.596;2022-10-04T02:07:08;17.10;;;7.72;;
52962;SDS011;38827;53.024;6.596;2022-10-04T02:09:38;22.00;;;8.07;;
52962;SDS011;38827;53.024;6.596;2022-10-04T02:12:07;19.50;;;7.90;;
52962;SDS011;38827;53.024;6.596;2022-10-04T02:14:34;18.58;;;8.18;;
52962;SDS011;38827;53.024;6.596;2022-10-04T02:17:01;22.13;;;8.38;;
52962;SDS011;38827;53.024;6.596;2022-10-04T02:19:35;16.25;;;7.93;;
52962;SDS011;38827;53.024;6.596;2022-10-04T02:22:05;18.02;;;8.35;;
52962;SDS011;38827;53.024;6.596;2022-10-04T02:24:34;19.80;;;7.78;;
52962;SDS011;38827;53.024;6.596;2022-10-04T02:27:07;19.08;;;8.00;;
52962;SDS011;38827;53.024;6.596;2022-10-04T02:29:33;17.40;;;8.70;;
52962;SDS011;38827;53.024;6.596;2022-10-04T02:31:59;19.25;;;8.60;;
52962;SDS011;38827;53.024;6.596;2022-10-04T02:34:49;20.33;;;9.15;;
52962;SDS011;38827;53.024;6.596;2022-10-04T02:37:15;16.95;;;8.23;;
52962;SDS011;38827;53.024;6.596;2022-10-04T02:40:16;17.80;;;8.07;;
52962;SDS011;38827;53.024;6.596;2022-10-04T02:42:43;15.75;;;7.93;;
52962;SDS011;38827;53.024;6.596;2022-10-04T02:45:23;19.13;;;8.68;;
52962;SDS011;38827;53.024;6.596;2022-10-04T02:47:57;20.92;;;9.68;;
52962;SDS011;38827;53.024;6.596;2022-10-04T02:53:02;17.42;;;9.10;;
52962;SDS011;38827;53.024;6.596;2022-10-04T02:55:52;16.92;;;8.38;;
52962;SDS011;38827;53.024;6.596;2022-10-04T02:58:20;17.05;;;9.60;;
52962;SDS011;38827;53.024;6.596;2022-10-04T03:00:49;20.75;;;9.07;;
52962;SDS011;38827;53.024;6.596;2022-10-04T03:11:28;23.25;;;9.48;;
52962;SDS011;38827;53.024;6.596;2022-10-04T03:13:58;20.17;;;9.50;;
52962;SDS011;38827;53.024;6.596;2022-10-04T03:16:29;16.63;;;10.02;;
52962;SDS011;38827;53.024;6.596;2022-10-04T03:18:59;20.80;;;10.75;;
52962;SDS011;38827;53.024;6.596;2022-10-04T03:24:49;15.30;;;9.35;;
52962;SDS011;38827;53.024;6.596;2022-10-04T03:27:48;22.95;;;9.90;;
52962;SDS011;38827;53.024;6.596;2022-10-04T03:30:43;19.90;;;9.68;;
52962;SDS011;38827;53.024;6.596;2022-10-04T03:36:11;20.23;;;9.82;;
52962;SDS011;38827;53.024;6.596;2022-10-04T03:39:10;20.98;;;10.75;;
52962;SDS011;38827;53.024;6.596;2022-10-04T03:41:48;18.15;;;10.63;;
52962;SDS011;38827;53.024;6.596;2022-10-04T03:44:15;18.30;;;10.05;;
52962;SDS011;38827;53.024;6.596;2022-10-04T03:46:51;23.20;;;11.02;;
52962;SDS011;38827;53.024;6.596;2022-10-04T03:49:19;20.75;;;10.50;;
52962;SDS011;38827;53.024;6.596;2022-10-04T03:52:19;21.83;;;10.50;;
52962;SDS011;38827;53.024;6.596;2022-10-04T03:55:05;18.35;;;10.40;;
52962;SDS011;38827;53.024;6.596;2022-10-04T03:57:40;23.55;;;10.27;;
52962;SDS011;38827;53.024;6.596;2022-10-04T04:00:13;17.95;;;10.38;;
52962;SDS011;38827;53.024;6.596;2022-10-04T04:03:00;20.25;;;10.30;;
52962;SDS011;38827;53.024;6.596;2022-10-04T04:05:43;24.55;;;11.13;;
52962;SDS011;38827;53.024;6.596;2022-10-04T04:08:33;19.45;;;9.93;;
52962;SDS011;38827;53.024;6.596;2022-10-04T04:11:04;22.13;;;10.95;;
52962;SDS011;38827;53.024;6.596;2022-10-04T04:13:51;22.85;;;11.25;;
52962;SDS011;38827;53.024;6.596;2022-10-04T04:16:28;21.40;;;10.57;;
52962;SDS011;38827;53.024;6.596;2022-10-04T04:19:10;25.00;;;10.65;;
52962;SDS011;38827;53.024;6.596;2022-10-04T04:21:42;22.08;;;10.98;;
52962;SDS011;38827;53.024;6.596;2022-10-04T04:24:23;22.67;;;11.23;;
52962;SDS011;38827;53.024;6.596;2022-10-04T04:26:56;22.50;;;11.38;;
52962;SDS011;38827;53.024;6.596;2022-10-04T04:37:18;20.85;;;11.20;;
52962;SDS011;38827;53.024;6.596;2022-10-04T04:39:48;19.20;;;10.55;;
52962;SDS011;38827;53.024;6.596;2022-10-04T04:42:34;18.10;;;10.40;;
52962;SDS011;38827;53.024;6.596;2022-10-04T04:45:02;21.75;;;12.32;;
52962;SDS011;38827;53.024;6.596;2022-10-04T04:47:52;22.38;;;10.70;;
52962;SDS011;38827;53.024;6.596;2022-10-04T04:50:22;24.23;;;11.85;;
52962;SDS011;38827;53.024;6.596;2022-10-04T04:53:02;22.55;;;12.70;;
52962;SDS011;38827;53.024;6.596;2022-10-04T04:55:33;18.48;;;12.13;;
52962;SDS011;38827;53.024;6.596;2022-10-04T04:58:05;26.88;;;12.73;;
52962;SDS011;38827;53.024;6.596;2022-10-04T05:00:36;22.95;;;12.35;;
52962;SDS011;38827;53.024;6.596;2022-10-04T05:03:03;23.92;;;13.27;;
52962;SDS011;38827;53.024;6.596;2022-10-04T05:05:33;21.88;;;13.27;;
52962;SDS011;38827;53.024;6.596;2022-10-04T05:10:45;28.52;;;13.55;;
52962;SDS011;38827;53.024;6.596;2022-10-04T05:13:26;26.75;;;13.85;;
52962;SDS011;38827;53.024;6.596;2022-10-04T05:16:05;27.42;;;13.55;;
52962;SDS011;38827;53.024;6.596;2022-10-04T05:18:36;21.05;;;13.02;;
52962;SDS011;38827;53.024;6.596;2022-10-04T05:21:10;26.63;;;13.35;;
52962;SDS011;38827;53.024;6.596;2022-10-04T05:23:49;24.95;;;13.15;;
52962;SDS011;38827;53.024;6.596;2022-10-04T05:26:16;20.58;;;12.95;;
52962;SDS011;38827;53.024;6.596;2022-10-04T05:28:50;27.13;;;14.05;;
52962;SDS011;38827;53.024;6.596;2022-10-04T05:34:17;21.75;;;13.85;;
52962;SDS011;38827;53.024;6.596;2022-10-04T05:37:07;20.45;;;13.70;;
52962;SDS011;38827;53.024;6.596;2022-10-04T05:39:42;25.95;;;14.50;;
52962;SDS011;38827;53.024;6.596;2022-10-04T05:42:21;26.75;;;14.80;;
52962;SDS011;38827;53.024;6.596;2022-10-04T05:44:54;32.10;;;17.55;;
52962;SDS011;38827;53.024;6.596;2022-10-04T05:47:29;27.60;;;14.57;;
52962;SDS011;38827;53.024;6.596;2022-10-04T05:49:55;26.45;;;16.02;;
52962;SDS011;38827;53.024;6.596;2022-10-04T05:52:30;28.10;;;16.02;;
52962;SDS011;38827;53.024;6.596;2022-10-04T05:55:21;23.70;;;13.77;;
52962;SDS011;38827;53.024;6.596;2022-10-04T05:58:05;23.30;;;14.60;;
52962;SDS011;38827;53.024;6.596;2022-10-04T06:03:57;28.38;;;15.52;;
52962;SDS011;38827;53.024;6.596;2022-10-04T06:06:40;22.95;;;15.25;;
52962;SDS011;38827;53.024;6.596;2022-10-04T06:12:24;30.48;;;15.57;;
52962;SDS011;38827;53.024;6.596;2022-10-04T06:23:05;31.15;;;15.95;;
52962;SDS011;38827;53.024;6.596;2022-10-04T06:25:38;26.48;;;15.88;;
52962;SDS011;38827;53.024;6.596;2022-10-04T06:42:19;20.52;;;14.32;;
52962;SDS011;38827;53.024;6.596;2022-10-04T06:45:15;24.38;;;14.77;;
52962;SDS011;38827;53.024;6.596;2022-10-04T06:58:58;15.80;;;9.80;;
52962;SDS011;38827;53.024;6.596;2022-10-04T07:01:52;14.38;;;9.70;;
52962;SDS011;38827;53.024;6.596;2022-10-04T07:12:52;13.73;;;8.27;;
52962;SDS011;38827;53.024;6.596;2022-10-04T07:15:41;13.50;;;7.63;;
52962;SDS011;38827;53.024;6.596;2022-10-04T07:18:42;13.40;;;8.60;;
52962;SDS011;38827;53.024;6.596;2022-10-04T07:30:13;12.02;;;7.85;;
52962;SDS011;38827;53.024;6.596;2022-10-04T07:32:45;11.15;;;7.90;;
52962;SDS011;38827;53.024;6.596;2022-10-04T07:37:55;11.23;;;8.13;;
52962;SDS011;38827;53.024;6.596;2022-10-04T07:40:31;14.50;;;8.38;;
52962;SDS011;38827;53.024;6.596;2022-10-04T07:43:04;17.83;;;8.43;;
52962;SDS011;38827;53.024;6.596;2022-10-04T07:45:50;13.95;;;7.57;;
52962;SDS011;38827;53.024;6.596;2022-10-04T07:48:40;11.80;;;7.45;;
52962;SDS011;38827;53.024;6.596;2022-10-04T08:07:53;11.95;;;6.78;;
52962;SDS011;38827;53.024;6.596;2022-10-04T08:16:36;11.77;;;6.60;;
52962;SDS011;38827;53.024;6.596;2022-10-04T08:19:39;10.23;;;6.47;;
52962;SDS011;38827;53.024;6.596;2022-10-04T08:25:27;12.13;;;6.75;;
52962;SDS011;38827;53.024;6.596;2022-10-04T08:40:15;9.50;;;5.57;;
52962;SDS011;38827;53.024;6.596;2022-10-04T08:48:51;11.43;;;5.00;;
52962;SDS011;38827;53.024;6.596;2022-10-04T08:55:10;8.23;;;4.55;;
52962;SDS011;38827;53.024;6.596;2022-10-04T09:00:59;8.38;;;4.55;;
52962;SDS011;38827;53.024;6.596;2022-10-04T09:03:49;8.93;;;4.53;;
52962;SDS011;38827;53.024;6.596;2022-10-04T09:06:34;7.13;;;4.32;;
52962;SDS011;38827;53.024;6.596;2022-10-04T09:31:00;8.05;;;3.72;;
52962;SDS011;38827;53.024;6.596;2022-10-04T09:39:20;6.93;;;4.20;;
52962;SDS011;38827;53.024;6.596;2022-10-04T10:07:43;6.72;;;3.42;;
52962;SDS011;38827;53.024;6.596;2022-10-04T10:37:22;7.38;;;2.97;;
52962;SDS011;38827;53.024;6.596;2022-10-04T10:39:32;7.82;;;2.92;;
52962;SDS011;38827;53.024;6.596;2022-10-04T10:42:43;6.40;;;2.47;;
52962;SDS011;38827;53.024;6.596;2022-10-04T10:48:19;6.43;;;2.90;;
52962;SDS011;38827;53.024;6.596;2022-10-04T10:50:50;6.60;;;2.60;;
52962;SDS011;38827;53.024;6.596;2022-10-04T10:59:35;6.15;;;2.55;;
52962;SDS011;38827;53.024;6.596;2022-10-04T11:22:16;5.45;;;2.95;;
52962;SDS011;38827;53.024;6.596;2022-10-04T11:30:19;6.47;;;2.65;;
52962;SDS011;38827;53.024;6.596;2022-10-04T11:58:47;6.82;;;3.05;;
52962;SDS011;38827;53.024;6.596;2022-10-04T12:18:20;5.53;;;2.90;;
52962;SDS011;38827;53.024;6.596;2022-10-04T12:29:54;7.90;;;3.17;;
52962;SDS011;38827;53.024;6.596;2022-10-04T12:32:47;4.78;;;2.85;;
52962;SDS011;38827;53.024;6.596;2022-10-04T12:35:23;6.88;;;3.30;;
52962;SDS011;38827;53.024;6.596;2022-10-04T12:40:42;6.20;;;3.38;;
52962;SDS011;38827;53.024;6.596;2022-10-04T12:46:37;6.05;;;3.30;;
52962;SDS011;38827;53.024;6.596;2022-10-04T12:49:30;6.32;;;3.42;;
52962;SDS011;38827;53.024;6.596;2022-10-04T12:52:11;5.68;;;3.03;;
52962;SDS011;38827;53.024;6.596;2022-10-04T13:00:18;6.75;;;3.60;;
52962;SDS011;38827;53.024;6.596;2022-10-04T13:15:54;9.60;;;4.13;;
52962;SDS011;38827;53.024;6.596;2022-10-04T13:30:57;11.93;;;4.18;;
52962;SDS011;38827;53.024;6.596;2022-10-04T13:39:42;8.40;;;3.60;;
52962;SDS011;38827;53.024;6.596;2022-10-04T13:45:21;7.00;;;3.15;;
52962;SDS011;38827;53.024;6.596;2022-10-04T13:53:35;8.02;;;3.58;;
52962;SDS011;38827;53.024;6.596;2022-10-04T13:56:44;6.68;;;3.50;;
52962;SDS011;38827;53.024;6.596;2022-10-04T14:27:18;7.82;;;3.38;;
52962;SDS011;38827;53.024;6.596;2022-10-04T14:33:03;5.68;;;2.85;;
52962;SDS011;38827;53.024;6.596;2022-10-04T14:44:04;6.50;;;2.65;;
52962;SDS011;38827;53.024;6.596;2022-10-04T14:55:46;4.20;;;2.30;;
52962;SDS011;38827;53.024;6.596;2022-10-04T15:06:59;7.30;;;2.47;;
52962;SDS011;38827;53.024;6.596;2022-10-04T15:09:12;7.35;;;2.22;;
52962;SDS011;38827;53.024;6.596;2022-10-04T15:17:03;10.68;;;2.88;;
52962;SDS011;38827;53.024;6.596;2022-10-04T15:23:05;5.78;;;3.10;;
52962;SDS011;38827;53.024;6.596;2022-10-04T15:31:35;5.68;;;2.47;;
52962;SDS011;38827;53.024;6.596;2022-10-04T15:48:31;4.32;;;2.30;;
52962;SDS011;38827;53.024;6.596;2022-10-04T16:00:22;5.55;;;2.47;;
52962;SDS011;38827;53.024;6.596;2022-10-04T16:06:02;7.53;;;2.92;;
52962;SDS011;38827;53.024;6.596;2022-10-04T16:14:47;5.38;;;2.28;;
52962;SDS011;38827;53.024;6.596;2022-10-04T16:20:55;7.32;;;3.10;;
52962;SDS011;38827;53.024;6.596;2022-10-04T16:23:41;6.15;;;2.92;;
52962;SDS011;38827;53.024;6.596;2022-10-04T16:29:13;6.30;;;2.30;;
52962;SDS011;38827;53.024;6.596;2022-10-04T16:40:57;10.97;;;3.33;;
52962;SDS011;38827;53.024;6.596;2022-10-04T16:43:26;6.82;;;3.13;;
52962;SDS011;38827;53.024;6.596;2022-10-04T16:46:17;7.45;;;3.05;;
52962;SDS011;38827;53.024;6.596;2022-10-04T16:48:52;8.65;;;3.88;;
52962;SDS011;38827;53.024;6.596;2022-10-04T16:54:12;11.32;;;4.35;;
52962;SDS011;38827;53.024;6.596;2022-10-04T16:57:22;11.43;;;4.88;;
52962;SDS011;38827;53.024;6.596;2022-10-04T16:59:49;11.98;;;4.63;;
52962;SDS011;38827;53.024;6.596;2022-10-04T17:43:15;7.60;;;3.67;;
52962;SDS011;38827;53.024;6.596;2022-10-04T17:46:30;6.32;;;3.85;;
52962;SDS011;38827;53.024;6.596;2022-10-04T17:52:23;9.75;;;4.40;;
52962;SDS011;38827;53.024;6.596;2022-10-04T17:55:14;14.23;;;4.20;;
52962;SDS011;38827;53.024;6.596;2022-10-04T17:58:03;7.75;;;3.63;;
52962;SDS011;38827;53.024;6.596;2022-10-04T18:03:24;7.38;;;4.13;;
52962;SDS011;38827;53.024;6.596;2022-10-04T18:05:57;7.90;;;4.25;;
52962;SDS011;38827;53.024;6.596;2022-10-04T18:11:39;11.57;;;4.32;;
52962;SDS011;38827;53.024;6.596;2022-10-04T18:14:10;10.02;;;4.57;;
52962;SDS011;38827;53.024;6.596;2022-10-04T18:17:07;9.80;;;4.63;;
52962;SDS011;38827;53.024;6.596;2022-10-04T18:22:18;13.77;;;5.00;;
52962;SDS011;38827;53.024;6.596;2022-10-04T18:25:10;8.52;;;5.10;;
52962;SDS011;38827;53.024;6.596;2022-10-04T18:27:49;8.07;;;4.85;;
52962;SDS011;38827;53.024;6.596;2022-10-04T18:33:21;8.23;;;5.28;;
52962;SDS011;38827;53.024;6.596;2022-10-04T18:36:19;11.65;;;4.50;;
52962;SDS011;38827;53.024;6.596;2022-10-04T18:39:17;9.27;;;4.78;;
52962;SDS011;38827;53.024;6.596;2022-10-04T18:47:57;8.43;;;4.45;;
52962;SDS011;38827;53.024;6.596;2022-10-04T18:50:35;9.88;;;4.70;;
52962;SDS011;38827;53.024;6.596;2022-10-04T18:56:06;9.18;;;4.88;;
52962;SDS011;38827;53.024;6.596;2022-10-04T19:01:56;11.65;;;5.60;;
52962;SDS011;38827;53.024;6.596;2022-10-04T19:04:41;7.30;;;5.00;;
52962;SDS011;38827;53.024;6.596;2022-10-04T19:10:31;10.50;;;5.15;;
52962;SDS011;38827;53.024;6.596;2022-10-04T19:32:40;10.32;;;4.95;;
52962;SDS011;38827;53.024;6.596;2022-10-04T19:40:57;8.23;;;5.20;;
52962;SDS011;38827;53.024;6.596;2022-10-04T19:43:55;8.23;;;5.18;;
52962;SDS011;38827;53.024;6.596;2022-10-04T19:49:12;12.80;;;8.32;;
52962;SDS011;38827;53.024;6.596;2022-10-04T19:51:44;10.18;;;5.55;;
52962;SDS011;38827;53.024;6.596;2022-10-04T19:54:16;7.55;;;5.45;;
52962;SDS011;38827;53.024;6.596;2022-10-04T19:56:47;10.05;;;6.13;;
52962;SDS011;38827;53.024;6.596;2022-10-04T20:01:42;13.13;;;7.57;;
52962;SDS011;38827;53.024;6.596;2022-10-04T20:04:14;10.05;;;5.93;;
52962;SDS011;38827;53.024;6.596;2022-10-04T20:07:00;10.90;;;5.88;;
52962;SDS011;38827;53.024;6.596;2022-10-04T20:15:13;15.25;;;6.68;;
52962;SDS011;38827;53.024;6.596;2022-10-04T20:17:46;9.68;;;6.13;;
52962;SDS011;38827;53.024;6.596;2022-10-04T20:23:03;10.48;;;6.00;;
52962;SDS011;38827;53.024;6.596;2022-10-04T20:30:51;10.02;;;6.75;;
52962;SDS011;38827;53.024;6.596;2022-10-04T20:35:57;33.58;;;20.15;;
52962;SDS011;38827;53.024;6.596;2022-10-04T20:43:54;10.55;;;5.80;;
52962;SDS011;38827;53.024;6.596;2022-10-04T20:46:24;11.32;;;5.60;;
52962;SDS011;38827;53.024;6.596;2022-10-04T20:48:55;10.23;;;6.30;;
52962;SDS011;38827;53.024;6.596;2022-10-04T20:51:22;12.02;;;6.57;;
52962;SDS011;38827;53.024;6.596;2022-10-04T20:53:51;11.15;;;6.40;;
52962;SDS011;38827;53.024;6.596;2022-10-04T20:58:57;10.38;;;5.80;;
52962;SDS011;38827;53.024;6.596;2022-10-04T21:01:25;10.38;;;6.28;;
52962;SDS011;38827;53.024;6.596;2022-10-04T21:06:53;10.57;;;5.75;;
52962;SDS011;38827;53.024;6.596;2022-10-04T21:09:20;10.82;;;6.20;;
52962;SDS011;38827;53.024;6.596;2022-10-04T21:11:47;12.82;;;6.43;;
52962;SDS011;38827;53.024;6.596;2022-10-04T21:14:22;10.65;;;6.28;;
52962;SDS011;38827;53.024;6.596;2022-10-04T21:16:50;8.88;;;5.93;;
52962;SDS011;38827;53.024;6.596;2022-10-04T21:19:41;7.38;;;5.78;;
52962;SDS011;38827;53.024;6.596;2022-10-04T21:24:58;11.67;;;6.20;;
52962;SDS011;38827;53.024;6.596;2022-10-04T21:27:26;9.38;;;5.97;;
52962;SDS011;38827;53.024;6.596;2022-10-04T21:29:51;11.68;;;6.00;;
52962;SDS011;38827;53.024;6.596;2022-10-04T21:32:18;11.93;;;6.10;;
52962;SDS011;38827;53.024;6.596;2022-10-04T21:34:44;11.50;;;6.05;;
52962;SDS011;38827;53.024;6.596;2022-10-04T21:37:10;9.60;;;6.05;;
52962;SDS011;38827;53.024;6.596;2022-10-04T21:39:35;12.23;;;6.07;;
52962;SDS011;38827;53.024;6.596;2022-10-04T21:42:01;11.43;;;6.22;;
52962;SDS011;38827;53.024;6.596;2022-10-04T21:44:27;10.52;;;6.35;;
52962;SDS011;38827;53.024;6.596;2022-10-04T21:46:52;12.77;;;6.63;;
52962;SDS011;38827;53.024;6.596;2022-10-04T21:49:18;10.75;;;6.00;;
52962;SDS011;38827;53.024;6.596;2022-10-04T21:51:43;11.80;;;6.25;;
52962;SDS011;38827;53.024;6.596;2022-10-04T21:54:09;9.50;;;5.97;;
52962;SDS011;38827;53.024;6.596;2022-10-04T21:56:45;14.48;;;6.75;;
52962;SDS011;38827;53.024;6.596;2022-10-04T21:59:10;8.80;;;6.13;;
52962;SDS011;38827;53.024;6.596;2022-10-04T22:01:36;9.23;;;5.97;;
52962;SDS011;38827;53.024;6.596;2022-10-04T22:04:02;10.88;;;5.97;;
52962;SDS011;38827;53.024;6.596;2022-10-04T22:06:30;10.23;;;6.03;;
52962;SDS011;38827;53.024;6.596;2022-10-04T22:08:56;7.60;;;5.55;;
52962;SDS011;38827;53.024;6.596;2022-10-04T22:11:27;10.05;;;6.18;;
52962;SDS011;38827;53.024;6.596;2022-10-04T22:13:53;9.68;;;6.00;;
52962;SDS011;38827;53.024;6.596;2022-10-04T22:16:18;8.50;;;5.90;;
52962;SDS011;38827;53.024;6.596;2022-10-04T22:18:44;9.02;;;6.25;;
52962;SDS011;38827;53.024;6.596;2022-10-04T22:21:10;9.45;;;5.78;;
52962;SDS011;38827;53.024;6.596;2022-10-04T22:23:36;11.35;;;6.38;;
52962;SDS011;38827;53.024;6.596;2022-10-04T22:26:10;11.55;;;6.45;;
52962;SDS011;38827;53.024;6.596;2022-10-04T22:28:38;9.13;;;5.63;;
52962;SDS011;38827;53.024;6.596;2022-10-04T22:31:14;11.52;;;5.97;;
52962;SDS011;38827;53.024;6.596;2022-10-04T22:33:42;13.65;;;6.60;;
52962;SDS011;38827;53.024;6.596;2022-10-04T22:39:10;12.23;;;5.90;;
52962;SDS011;38827;53.024;6.596;2022-10-04T22:41:40;9.75;;;5.95;;
52962;SDS011;38827;53.024;6.596;2022-10-04T22:46:38;9.35;;;6.28;;
52962;SDS011;38827;53.024;6.596;2022-10-04T22:49:09;8.70;;;5.78;;
52962;SDS011;38827;53.024;6.596;2022-10-04T22:51:37;10.20;;;6.10;;
52962;SDS011;38827;53.024;6.596;2022-10-04T22:54:11;23.50;;;7.40;;
52962;SDS011;38827;53.024;6.596;2022-10-04T22:56:39;9.43;;;5.88;;
52962;SDS011;38827;53.024;6.596;2022-10-04T22:59:45;10.52;;;6.10;;
52962;SDS011;38827;53.024;6.596;2022-10-04T23:02:29;9.98;;;6.50;;
52962;SDS011;38827;53.024;6.596;2022-10-04T23:05:08;9.27;;;6.53;;
52962;SDS011;38827;53.024;6.596;2022-10-04T23:07:51;8.18;;;6.03;;
52962;SDS011;38827;53.024;6.596;2022-10-04T23:10:29;9.75;;;6.68;;
52962;SDS011;38827;53.024;6.596;2022-10-04T23:13:03;12.93;;;6.45;;
52962;SDS011;38827;53.024;6.596;2022-10-04T23:15:28;8.73;;;6.40;;
52962;SDS011;38827;53.024;6.596;2022-10-04T23:17:54;10.43;;;6.45;;
52962;SDS011;38827;53.024;6.596;2022-10-04T23:20:27;11.68;;;6.38;;
52962;SDS011;38827;53.024;6.596;2022-10-04T23:23:04;9.88;;;6.60;;
52962;SDS011;38827;53.024;6.596;2022-10-04T23:25:51;12.15;;;6.72;;
52962;SDS011;38827;53.024;6.596;2022-10-04T23:28:20;12.48;;;5.97;;
52962;SDS011;38827;53.024;6.596;2022-10-04T23:31:03;12.45;;;5.90;;
52962;SDS011;38827;53.024;6.596;2022-10-04T23:33:37;9.80;;;6.13;;
52962;SDS011;38827;53.024;6.596;2022-10-04T23:38:35;9.13;;;6.40;;
52962;SDS011;38827;53.024;6.596;2022-10-04T23:41:00;12.57;;;6.32;;
52962;SDS011;38827;53.024;6.596;2022-10-04T23:43:26;8.18;;;6.38;;
52962;SDS011;38827;53.024;6.596;2022-10-04T23:45:55;15.15;;;6.38;;
52962;SDS011;38827;53.024;6.596;2022-10-04T23:48:26;10.35;;;6.15;;
52962;SDS011;38827;53.024;6.596;2022-10-04T23:50:53;10.18;;;6.82;;
52962;SDS011;38827;53.024;6.596;2022-10-04T23:53:22;9.82;;;6.50;;
52962;SDS011;38827;53.024;6.596;2022-10-04T23:55:51;11.20;;;6.40;;
52962;SDS011;38827;53.024;6.596;2022-10-04T23:58:23;11.40;;;6.43;;
